Time;durP1;ratioP1;P1;durP2;ratioP2;P2;SDS_P1;SDS_P2;PMS_P1;PMS_P2;Temp;Humidity;BMP_temperature;BMP_pressure;BME280_temperature;BME280_humidity;BME280_pressure;Samples;Min_cycle;Max_cycle;Signal;HPM_P1;HPM_P2
2022/05/17 00:02:08;;;;;;;23.75;7.00;;;15.70;99.90;;;;;;5009003;28;20073;-74
2022/05/17 00:04:34;;;;;;;25.92;7.40;;;15.70;99.90;;;;;;4918245;28;221075;-72
2022/05/17 00:07:02;;;;;;;20.95;6.57;;;15.60;99.90;;;;;;5002297;28;20042;-71
2022/05/17 00:09:28;;;;;;;21.02;6.57;;;15.60;99.90;;;;;;4947559;28;212974;-72
2022/05/17 00:11:56;;;;;;;21.92;6.30;;;15.50;99.90;;;;;;5018785;28;20056;-74
2022/05/17 00:14:23;;;;;;;24.08;6.85;;;15.50;99.90;;;;;;4950899;28;208978;-72
2022/05/17 00:16:50;;;;;;;25.80;7.78;;;15.50;99.90;;;;;;5012782;28;20050;-71
2022/05/17 00:19:19;;;;;;;26.80;7.40;;;15.50;99.90;;;;;;4943751;28;223807;-73
2022/05/17 00:21:46;;;;;;;22.70;6.60;;;15.40;99.90;;;;;;5005561;28;20065;-72
2022/05/17 00:24:15;;;;;;;20.13;6.43;;;15.40;99.90;;;;;;4943572;28;215623;-72
2022/05/17 00:26:41;;;;;;;27.85;7.45;;;15.40;99.90;;;;;;5004704;28;20069;-74
2022/05/17 00:29:07;;;;;;;22.70;7.38;;;15.30;99.90;;;;;;4954173;28;217427;-71
2022/05/17 00:31:34;;;;;;;25.10;7.32;;;15.30;99.90;;;;;;5021570;28;20053;-71
2022/05/17 00:34:02;;;;;;;24.38;7.05;;;15.20;99.90;;;;;;4942850;28;211818;-72
2022/05/17 00:36:32;;;;;;;25.50;7.57;;;15.20;99.90;;;;;;5000777;28;20045;-73
2022/05/17 00:38:59;;;;;;;27.17;6.88;;;15.20;99.90;;;;;;4956987;28;214677;-73
2022/05/17 00:41:25;;;;;;;21.30;6.53;;;15.20;99.90;;;;;;5020319;28;20045;-71
2022/05/17 00:46:58;;;;;;;23.65;6.65;;;15.10;99.90;;;;;;4984303;28;20044;-71
2022/05/17 00:49:41;;;;;;;22.13;6.60;;;15.10;99.90;;;;;;4934796;28;215188;-71
2022/05/17 00:52:15;;;;;;;25.30;7.15;;;15.10;99.90;;;;;;5000893;28;20700;-72
2022/05/17 00:54:44;;;;;;;23.60;6.93;;;15.10;99.90;;;;;;4942076;28;224369;-73
2022/05/17 00:57:38;;;;;;;23.63;6.88;;;15.00;99.90;;;;;;4999109;28;20050;-72
2022/05/17 01:00:12;;;;;;;22.77;7.25;;;15.00;99.90;;;;;;4956720;28;271602;-72
2022/05/17 01:02:42;;;;;;;19.38;6.40;;;14.90;99.90;;;;;;4997550;28;20065;-72
2022/05/17 01:05:09;;;;;;;22.25;7.13;;;14.90;99.90;;;;;;4931834;28;206997;-72
2022/05/17 01:07:42;;;;;;;21.73;6.32;;;14.80;99.90;;;;;;5008354;28;20052;-72
2022/05/17 01:10:09;;;;;;;20.88;6.68;;;14.80;99.90;;;;;;4934903;28;240166;-72
2022/05/17 01:12:38;;;;;;;20.95;6.97;;;14.80;99.90;;;;;;5007415;28;20442;-73
2022/05/17 01:15:09;;;;;;;21.95;6.45;;;14.80;99.90;;;;;;4948447;28;206695;-73
2022/05/17 01:17:38;;;;;;;22.92;6.70;;;14.80;99.90;;;;;;5009189;28;20050;-72
2022/05/17 01:20:12;;;;;;;18.58;6.32;;;14.80;99.90;;;;;;4938833;28;206124;-71
2022/05/17 01:22:38;;;;;;;26.08;7.22;;;14.70;99.90;;;;;;5000398;28;20089;-74
2022/05/17 01:25:05;;;;;;;22.85;6.88;;;14.70;99.90;;;;;;4934850;28;238316;-71
2022/05/17 01:27:43;;;;;;;21.17;6.35;;;14.70;99.90;;;;;;5010009;28;20058;-71
2022/05/17 01:30:22;;;;;;;22.00;6.35;;;14.70;99.90;;;;;;4949882;28;119406;-72
2022/05/17 01:32:48;;;;;;;24.77;7.13;;;14.60;99.90;;;;;;5002456;28;20057;-72
2022/05/17 01:35:14;;;;;;;22.50;6.15;;;14.60;99.90;;;;;;4952367;28;215373;-72
2022/05/17 01:37:40;;;;;;;23.65;6.80;;;14.60;99.90;;;;;;5002456;28;20053;-71
2022/05/17 01:40:07;;;;;;;24.45;6.88;;;14.60;99.90;;;;;;4957920;28;215985;-71
2022/05/17 01:42:34;;;;;;;23.60;6.22;;;14.60;99.90;;;;;;5010781;28;20057;-72
2022/05/17 01:45:00;;;;;;;21.60;6.18;;;14.60;99.90;;;;;;4943037;28;217124;-72
2022/05/17 01:47:26;;;;;;;20.35;6.05;;;14.60;99.90;;;;;;5009754;28;20061;-72
2022/05/17 01:49:52;;;;;;;19.10;5.88;;;14.60;99.90;;;;;;4945894;28;217893;-71
2022/05/17 01:52:18;;;;;;;21.33;6.50;;;14.60;99.90;;;;;;5009782;28;20046;-72
2022/05/17 01:54:45;;;;;;;22.20;6.35;;;14.50;99.90;;;;;;4939370;28;213037;-71
2022/05/17 01:57:11;;;;;;;26.13;6.95;;;14.50;99.90;;;;;;5012284;28;20041;-74
2022/05/17 01:59:37;;;;;;;22.48;7.25;;;14.50;99.90;;;;;;4940705;28;234638;-72
2022/05/17 02:02:04;;;;;;;20.98;7.25;;;14.50;99.90;;;;;;5005133;28;20057;-72
2022/05/17 02:04:31;;;;;;;21.90;6.90;;;14.50;99.90;;;;;;4923284;28;213386;-73
2022/05/17 02:06:57;;;;;;;21.38;6.60;;;14.50;99.90;;;;;;4978987;28;20054;-73
2022/05/17 02:09:23;;;;;;;16.42;6.00;;;14.50;99.90;;;;;;4937662;28;252107;-75
2022/05/17 02:11:49;;;;;;;22.77;7.40;;;14.40;99.90;;;;;;4995419;28;20049;-72
2022/05/17 02:14:17;;;;;;;26.33;7.50;;;14.40;99.90;;;;;;4936904;28;225083;-72
2022/05/17 02:16:44;;;;;;;19.88;7.07;;;14.30;99.90;;;;;;4979464;28;20399;-72
2022/05/17 02:19:10;;;;;;;22.35;7.72;;;14.30;99.90;;;;;;4949306;28;202300;-71
2022/05/17 02:21:37;;;;;;;22.33;7.03;;;14.30;99.90;;;;;;5010829;28;20057;-71
2022/05/17 02:24:04;;;;;;;26.10;7.90;;;14.30;99.90;;;;;;4934960;28;216777;-73
2022/05/17 02:26:31;;;;;;;22.70;8.05;;;14.30;99.90;;;;;;4983833;28;20042;-73
2022/05/17 02:28:57;;;;;;;24.80;7.75;;;14.30;99.90;;;;;;4958068;28;212783;-73
2022/05/17 02:31:23;;;;;;;23.10;8.27;;;14.30;99.90;;;;;;5011818;28;20074;-74
2022/05/17 02:33:50;;;;;;;24.27;8.00;;;14.20;99.90;;;;;;4959711;28;209480;-75
2022/05/17 02:36:16;;;;;;;25.95;8.25;;;14.20;99.90;;;;;;4989095;28;145698;-73
2022/05/17 02:38:43;;;;;;;22.48;8.45;;;14.20;99.90;;;;;;4956485;28;223079;-71
2022/05/17 02:41:10;;;;;;;24.20;8.13;;;14.20;99.90;;;;;;4996651;28;72693;-72
2022/05/17 02:43:37;;;;;;;24.07;8.93;;;14.10;99.90;;;;;;4960899;28;215754;-71
2022/05/17 02:46:04;;;;;;;22.35;8.77;;;14.10;99.90;;;;;;4964203;28;111726;-73
2022/05/17 02:48:31;;;;;;;25.42;8.70;;;14.10;99.90;;;;;;4960750;28;209608;-72
2022/05/17 02:51:07;;;;;;;25.88;9.32;;;14.10;99.90;;;;;;4983046;28;103012;-71
2022/05/17 02:53:33;;;;;;;25.92;9.05;;;14.00;99.90;;;;;;4953888;28;211142;-71
2022/05/17 02:55:59;;;;;;;27.20;9.60;;;14.10;99.90;;;;;;4987864;28;164673;-73
2022/05/17 02:58:25;;;;;;;23.48;8.85;;;14.00;99.90;;;;;;4956816;28;218514;-72
2022/05/17 03:00:51;;;;;;;23.17;8.10;;;14.00;99.90;;;;;;4975919;28;96569;-74
2022/05/17 03:03:17;;;;;;;21.83;8.30;;;14.00;99.90;;;;;;5004476;28;20057;-71
2022/05/17 03:05:43;;;;;;;23.52;8.90;;;13.90;99.90;;;;;;4903893;28;207093;-72
2022/05/17 03:08:09;;;;;;;23.25;9.25;;;13.90;99.90;;;;;;5002326;28;20053;-72
2022/05/17 03:10:35;;;;;;;26.40;9.55;;;13.80;99.90;;;;;;4943939;28;215832;-71
2022/05/17 03:13:02;;;;;;;26.40;9.40;;;13.80;99.90;;;;;;5002613;28;20052;-72
2022/05/17 03:15:29;;;;;;;30.73;9.45;;;13.80;99.90;;;;;;4937616;28;213995;-71
2022/05/17 03:17:55;;;;;;;27.67;9.80;;;13.70;99.90;;;;;;5003381;28;20076;-74
2022/05/17 03:20:21;;;;;;;24.27;10.18;;;13.70;99.90;;;;;;4954548;28;226915;-71
2022/05/17 03:22:47;;;;;;;26.75;9.68;;;13.70;99.90;;;;;;5001204;28;20053;-71
2022/05/17 03:25:14;;;;;;;29.83;10.30;;;13.70;99.90;;;;;;4925807;28;223416;-71
2022/05/17 03:27:40;;;;;;;25.80;10.07;;;13.70;99.90;;;;;;5003577;28;20057;-73
2022/05/17 03:30:06;;;;;;;29.17;10.05;;;13.70;99.90;;;;;;4932076;28;206337;-72
2022/05/17 03:32:33;;;;;;;24.45;10.02;;;13.70;99.90;;;;;;5005802;28;20068;-75
2022/05/17 03:34:59;;;;;;;28.85;9.95;;;13.60;99.90;;;;;;4935330;28;217712;-73
2022/05/17 03:37:25;;;;;;;24.40;9.43;;;13.60;99.90;;;;;;5006758;28;20041;-71
2022/05/17 03:39:52;;;;;;;24.42;9.45;;;13.60;99.90;;;;;;4931494;28;210002;-72
2022/05/17 03:42:18;;;;;;;28.05;9.85;;;13.60;99.90;;;;;;5001676;28;20058;-72
2022/05/17 03:44:44;;;;;;;26.65;9.32;;;13.60;99.90;;;;;;4942468;28;212419;-72
2022/05/17 03:47:11;;;;;;;26.45;9.88;;;13.50;99.90;;;;;;5000971;28;20137;-72
2022/05/17 03:49:38;;;;;;;24.30;9.68;;;13.50;99.90;;;;;;4958936;28;215564;-71
2022/05/17 03:52:05;;;;;;;24.73;9.73;;;13.60;99.90;;;;;;4985278;28;20407;-72
2022/05/17 03:54:32;;;;;;;28.83;9.65;;;13.50;99.90;;;;;;4936271;28;213285;-72
2022/05/17 03:56:58;;;;;;;27.35;9.52;;;13.50;99.90;;;;;;4998910;28;20061;-72
2022/05/17 03:59:24;;;;;;;26.90;9.40;;;13.50;99.90;;;;;;4944180;28;215997;-72
2022/05/17 04:01:50;;;;;;;24.75;9.82;;;13.60;99.90;;;;;;5006983;28;20060;-72
2022/05/17 04:04:17;;;;;;;21.85;9.30;;;13.60;99.90;;;;;;4921604;28;228668;-72
2022/05/17 04:06:43;;;;;;;26.17;9.63;;;13.60;99.90;;;;;;4993322;28;20060;-71
2022/05/17 04:09:10;;;;;;;27.73;9.80;;;13.60;99.90;;;;;;4947238;28;211360;-73
2022/05/17 04:11:37;;;;;;;25.70;9.73;;;13.60;99.90;;;;;;4988542;28;20121;-76
2022/05/17 04:14:03;;;;;;;25.10;9.60;;;13.70;99.90;;;;;;4940992;28;205448;-72
2022/05/17 04:16:35;;;;;;;25.17;9.80;;;13.70;99.90;;;;;;5005570;28;20068;-72
2022/05/17 04:19:03;;;;;;;23.90;8.98;;;13.80;99.90;;;;;;4942489;28;224353;-73
2022/05/17 04:21:31;;;;;;;27.63;9.57;;;13.80;99.90;;;;;;5023072;28;20042;-71
2022/05/17 04:23:57;;;;;;;26.00;9.40;;;13.90;99.90;;;;;;4952124;28;219560;-68
2022/05/17 04:26:24;;;;;;;26.33;9.10;;;13.90;99.90;;;;;;4997311;28;20054;-72
2022/05/17 04:28:51;;;;;;;25.98;9.35;;;13.90;99.90;;;;;;4954046;28;206758;-75
2022/05/17 04:31:18;;;;;;;25.48;10.05;;;14.00;99.90;;;;;;4990958;28;191920;-71
2022/05/17 04:33:44;;;;;;;25.83;9.20;;;14.10;99.90;;;;;;4956520;28;214626;-71
2022/05/17 04:36:10;;;;;;;24.17;9.48;;;14.10;99.90;;;;;;4983220;28;106278;-76
2022/05/17 04:38:37;;;;;;;26.67;9.67;;;14.20;99.90;;;;;;4955723;28;213049;-73
2022/05/17 04:41:04;;;;;;;23.40;8.88;;;14.30;99.90;;;;;;4988892;28;189149;-74
2022/05/17 04:43:31;;;;;;;27.47;9.77;;;14.30;99.90;;;;;;4954808;28;212077;-71
2022/05/17 04:45:57;;;;;;;23.08;9.82;;;14.40;99.90;;;;;;4984943;28;158379;-72
2022/05/17 04:48:24;;;;;;;22.30;9.60;;;14.40;99.90;;;;;;4973091;28;228948;-72
2022/05/17 04:50:51;;;;;;;22.65;9.13;;;14.50;99.90;;;;;;4947773;28;254010;-71
2022/05/17 04:53:17;;;;;;;23.98;9.30;;;14.50;99.90;;;;;;5019510;28;20419;-72
2022/05/17 04:55:44;;;;;;;24.02;8.45;;;14.60;99.90;;;;;;4956700;28;259436;-72
2022/05/17 04:58:10;;;;;;;22.27;8.55;;;14.60;99.90;;;;;;5005387;28;20041;-71
2022/05/17 05:00:36;;;;;;;21.38;8.25;;;14.60;99.90;;;;;;4925635;28;209240;-71
2022/05/17 05:03:03;;;;;;;25.50;8.00;;;14.60;99.90;;;;;;5016921;28;20080;-72
2022/05/17 05:05:30;;;;;;;21.42;7.63;;;14.70;99.90;;;;;;4907577;28;241430;-74
2022/05/17 05:07:56;;;;;;;22.25;6.90;;;14.70;99.90;;;;;;5003850;28;20395;-71
2022/05/17 05:10:22;;;;;;;21.83;7.30;;;14.70;99.90;;;;;;4926899;28;216136;-72
2022/05/17 05:12:49;;;;;;;20.27;7.20;;;14.80;99.90;;;;;;5003815;28;20080;-75
2022/05/17 05:15:16;;;;;;;25.85;7.20;;;14.90;99.90;;;;;;4951267;28;187609;-72
2022/05/17 05:17:42;;;;;;;20.98;6.80;;;14.90;99.90;;;;;;5003835;28;20415;-72
2022/05/17 05:20:12;;;;;;;20.95;6.70;;;15.00;99.90;;;;;;4924504;28;215235;-71
2022/05/17 05:22:38;;;;;;;26.40;7.47;;;15.10;99.90;;;;;;4995087;28;20052;-72
2022/05/17 05:25:05;;;;;;;24.73;7.47;;;15.10;99.90;;;;;;4946517;28;212940;-73
2022/05/17 05:27:33;;;;;;;19.33;7.90;;;15.20;99.90;;;;;;5008745;28;20088;-72
2022/05/17 05:30:00;;;;;;;20.95;7.05;;;15.20;99.90;;;;;;4937025;28;214978;-72
2022/05/17 05:32:26;;;;;;;21.23;7.10;;;15.30;99.90;;;;;;5000161;28;20053;-75
2022/05/17 05:34:52;;;;;;;21.27;7.80;;;15.40;99.90;;;;;;4938698;28;213701;-71
2022/05/17 05:37:18;;;;;;;24.65;7.55;;;15.40;99.90;;;;;;5015132;28;20408;-71
2022/05/17 05:39:44;;;;;;;19.98;6.70;;;15.50;99.90;;;;;;4936788;28;216701;-71
2022/05/17 05:42:11;;;;;;;19.02;6.55;;;15.60;99.90;;;;;;4997525;28;20057;-71
2022/05/17 05:44:37;;;;;;;23.02;6.90;;;15.70;99.90;;;;;;4937020;28;207517;-72
2022/05/17 05:47:03;;;;;;;21.08;6.68;;;15.80;99.90;;;;;;5003533;28;20061;-76
2022/05/17 05:49:29;;;;;;;21.23;6.45;;;16.00;99.90;;;;;;4936095;28;212394;-71
2022/05/17 05:51:55;;;;;;;22.17;6.35;;;16.10;99.90;;;;;;5001260;28;20045;-71
2022/05/17 05:54:22;;;;;;;18.88;5.43;;;16.30;99.90;;;;;;4941177;28;213350;-70
2022/05/17 05:56:48;;;;;;;21.45;5.72;;;16.50;99.90;;;;;;5004910;28;20804;-72
2022/05/17 05:59:14;;;;;;;17.85;4.80;;;16.70;99.90;;;;;;4951101;28;205681;-69
2022/05/17 06:01:40;;;;;;;21.23;5.50;;;16.90;99.90;;;;;;5016682;28;20513;-70
2022/05/17 06:04:06;;;;;;;17.98;5.00;;;16.90;99.90;;;;;;4928472;28;216997;-72
2022/05/17 06:06:33;;;;;;;21.35;5.20;;;17.00;99.90;;;;;;4969846;28;20053;-70
2022/05/17 06:08:59;;;;;;;20.48;4.80;;;17.10;99.90;;;;;;4943118;28;216069;-70
2022/05/17 06:11:25;;;;;;;15.93;4.93;;;17.20;99.90;;;;;;4998229;28;20050;-70
2022/05/17 06:13:51;;;;;;;17.20;4.43;;;17.30;99.90;;;;;;4957100;28;214935;-72
2022/05/17 06:16:17;;;;;;;17.73;4.60;;;17.30;99.90;;;;;;4991085;28;202815;-69
2022/05/17 06:18:43;;;;;;;17.38;5.00;;;17.40;99.90;;;;;;4963788;28;209191;-71
2022/05/17 06:21:10;;;;;;;17.00;5.00;;;17.40;99.90;;;;;;4985569;28;63173;-70
2022/05/17 06:23:36;;;;;;;18.85;5.40;;;17.50;99.90;;;;;;4956512;28;213626;-69
2022/05/17 06:26:02;;;;;;;18.00;5.25;;;17.50;99.90;;;;;;4972327;28;120127;-70
2022/05/17 06:28:29;;;;;;;18.60;4.78;;;17.60;99.90;;;;;;4961083;28;218321;-73
2022/05/17 06:30:55;;;;;;;19.63;5.05;;;17.80;99.90;;;;;;4999325;28;20517;-70
2022/05/17 06:33:21;;;;;;;15.38;4.70;;;17.80;99.90;;;;;;4987998;28;212540;-70
2022/05/17 06:35:48;;;;;;;17.52;5.10;;;18.00;99.90;;;;;;4936979;28;206717;-70
2022/05/17 06:38:15;;;;;;;20.58;4.90;;;18.00;99.90;;;;;;5004154;28;20049;-70
2022/05/17 06:40:42;;;;;;;19.02;4.93;;;18.10;99.90;;;;;;4927963;28;206149;-70
2022/05/17 06:43:09;;;;;;;18.27;4.85;;;18.10;99.90;;;;;;5006795;28;20053;-70
2022/05/17 06:45:35;;;;;;;15.40;4.38;;;18.30;99.90;;;;;;4936499;28;212427;-70
2022/05/17 06:48:02;;;;;;;17.48;5.10;;;18.40;99.90;;;;;;4999883;28;20337;-71
2022/05/17 06:50:29;;;;;;;21.15;5.00;;;18.60;99.90;;;;;;4930163;28;206616;-73
2022/05/17 06:52:55;;;;;;;17.90;4.75;;;18.80;99.90;;;;;;5001886;28;20049;-72
2022/05/17 06:55:22;;;;;;;19.05;4.90;;;18.90;99.90;;;;;;4944574;28;213661;-72
2022/05/17 06:57:50;;;;;;;19.33;5.00;;;19.10;99.90;;;;;;5007846;28;20054;-71
2022/05/17 07:00:17;;;;;;;16.55;4.30;;;19.10;99.90;;;;;;4942757;28;209175;-70
2022/05/17 07:02:43;;;;;;;15.77;4.60;;;19.30;99.90;;;;;;5006347;28;20496;-70
2022/05/17 07:05:10;;;;;;;15.18;4.10;;;19.40;99.90;;;;;;4914807;28;215733;-69
2022/05/17 07:07:37;;;;;;;14.82;4.32;;;19.50;99.90;;;;;;5001783;28;20052;-71
2022/05/17 07:13:08;;;;;;;19.67;4.30;;;19.40;99.90;;;;;;5006749;28;20049;-71
2022/05/17 07:15:38;;;;;;;16.38;4.43;;;19.30;99.90;;;;;;4939974;28;210257;-73
2022/05/17 07:18:05;;;;;;;15.48;4.13;;;19.50;99.90;;;;;;5002293;28;20057;-72
2022/05/17 07:20:32;;;;;;;18.42;3.95;;;19.50;99.90;;;;;;4961737;28;207517;-71
2022/05/17 07:22:58;;;;;;;17.55;4.47;;;19.60;99.90;;;;;;5007287;28;20061;-71
2022/05/17 07:25:24;;;;;;;19.13;4.65;;;19.60;99.90;;;;;;4946786;28;211699;-70
2022/05/17 07:27:51;;;;;;;15.32;3.95;;;19.50;99.90;;;;;;5019182;28;20058;-71
2022/05/17 07:30:17;;;;;;;13.35;4.25;;;19.50;99.90;;;;;;4944989;28;216895;-70
2022/05/17 07:32:43;;;;;;;16.10;4.40;;;19.70;99.90;;;;;;5007493;28;20050;-71
2022/05/17 07:35:09;;;;;;;15.98;4.18;;;19.90;99.90;;;;;;4935561;28;206644;-72
2022/05/17 07:37:36;;;;;;;17.75;4.60;;;20.00;99.90;;;;;;5002044;28;20068;-71
2022/05/17 07:40:03;;;;;;;19.17;4.72;;;20.10;99.90;;;;;;4931680;28;215800;-70
2022/05/17 07:42:31;;;;;;;18.75;4.50;;;20.20;99.90;;;;;;5006845;28;20315;-71
2022/05/17 07:44:58;;;;;;;16.08;3.80;;;20.50;99.90;;;;;;4914922;28;215724;-70
2022/05/17 07:47:24;;;;;;;18.02;4.03;;;20.50;99.90;;;;;;4991415;28;20054;-72
2022/05/17 07:49:50;;;;;;;15.35;4.13;;;20.70;99.90;;;;;;4943270;28;217764;-72
2022/05/17 07:52:17;;;;;;;16.25;4.40;;;21.00;99.90;;;;;;5007395;28;20463;-72
2022/05/17 07:54:43;;;;;;;15.07;3.70;;;21.00;99.90;;;;;;4949857;28;216026;-72
2022/05/17 07:57:09;;;;;;;16.15;3.83;;;21.30;99.90;;;;;;5010788;28;20046;-73
2022/05/17 07:59:36;;;;;;;13.65;3.60;;;21.40;99.90;;;;;;4940750;28;213000;-71
2022/05/17 08:02:02;;;;;;;16.33;3.72;;;21.50;99.90;;;;;;4995227;28;20054;-71
2022/05/17 08:04:31;;;;;;;16.08;3.63;;;21.40;99.90;;;;;;4923595;28;213192;-74
2022/05/17 08:06:57;;;;;;;17.42;4.30;;;21.50;99.90;;;;;;5002414;28;20049;-73
2022/05/17 08:09:23;;;;;;;15.68;4.40;;;21.70;99.90;;;;;;4940384;28;206369;-71
2022/05/17 08:11:51;;;;;;;16.83;3.95;;;22.00;99.90;;;;;;4979296;28;20058;-72
2022/05/17 08:14:17;;;;;;;15.57;3.70;;;22.30;99.90;;;;;;4946547;28;211987;-72
2022/05/17 08:16:44;;;;;;;16.10;3.85;;;22.40;99.90;;;;;;5006325;28;20065;-72
2022/05/17 08:19:11;;;;;;;14.13;3.20;;;22.40;99.90;;;;;;4942853;28;216345;-71
2022/05/17 08:21:38;;;;;;;10.80;3.08;;;22.50;99.90;;;;;;5002602;28;20152;-73
2022/05/17 08:24:04;;;;;;;13.35;3.40;;;22.60;99.90;;;;;;4948705;28;211990;-72
2022/05/17 08:29:15;;;;;;;13.50;3.30;;;23.30;99.90;;;;;;4953554;28;232179;-71
2022/05/17 08:33:14;;;;;;;14.15;3.33;;;23.50;99.90;;;;;;5014814;28;20057;-72
2022/05/17 08:34:29;;;;;;;13.35;3.00;;;23.80;99.90;;;;;;4944911;28;253846;-71
2022/05/17 08:36:55;;;;;;;13.38;3.00;;;24.20;99.10;;;;;;5000723;28;20050;-70
2022/05/17 08:39:21;;;;;;;15.75;3.53;;;24.20;97.50;;;;;;4943914;28;209597;-73
2022/05/17 08:41:53;;;;;;;11.95;2.95;;;24.00;98.20;;;;;;5005364;28;20053;-73
2022/05/17 08:44:28;;;;;;;12.85;2.90;;;23.80;94.90;;;;;;4960032;28;206377;-71
2022/05/17 08:47:05;;;;;;;13.85;2.88;;;23.60;97.10;;;;;;5000904;28;20049;-75
2022/05/17 08:49:40;;;;;;;12.50;2.95;;;23.80;95.90;;;;;;4944029;28;211914;-71
2022/05/17 08:52:11;;;;;;;14.00;3.33;;;23.90;95.20;;;;;;5010622;28;20061;-71
2022/05/17 08:54:54;;;;;;;10.85;2.40;;;24.00;95.20;;;;;;4945587;28;218140;-73
2022/05/17 08:57:32;;;;;;;12.02;2.30;;;24.30;93.40;;;;;;5009543;28;20522;-71
2022/05/17 09:00:09;;;;;;;10.90;2.25;;;24.10;92.90;;;;;;4944404;28;249950;-72
2022/05/17 09:02:47;;;;;;;13.18;2.30;;;24.20;92.00;;;;;;5006991;28;20053;-74
2022/05/17 09:05:33;;;;;;;10.25;2.40;;;24.30;90.90;;;;;;4903941;28;212863;-71
2022/05/17 09:08:12;;;;;;;12.82;2.80;;;24.20;93.60;;;;;;5003118;28;20061;-76
2022/05/17 09:10:41;;;;;;;12.02;2.50;;;24.30;90.10;;;;;;4940078;28;232869;-73
2022/05/17 09:13:43;;;;;;;11.75;2.22;;;24.20;91.70;;;;;;5007987;28;20053;-72
2022/05/17 09:16:10;;;;;;;11.55;2.30;;;24.70;90.00;;;;;;4947631;28;208302;-70
2022/05/17 09:18:39;;;;;;;11.25;2.50;;;24.40;90.00;;;;;;4958199;28;208754;-70
2022/05/17 09:21:18;;;;;;;11.13;2.80;;;24.50;90.80;;;;;;4999720;28;49589;-71
2022/05/17 09:23:44;;;;;;;14.32;2.65;;;24.60;89.30;;;;;;4962548;28;205939;-71
2022/05/17 09:26:10;;;;;;;10.40;2.38;;;24.70;89.20;;;;;;5003162;28;65180;-71
2022/05/17 09:28:53;;;;;;;11.63;2.50;;;25.00;87.80;;;;;;4954539;28;216910;-71
2022/05/17 09:31:22;;;;;;;12.05;2.45;;;25.50;87.00;;;;;;4980314;28;100092;-71
2022/05/17 09:33:49;;;;;;;12.75;2.63;;;25.80;78.50;;;;;;4954848;28;209803;-72
2022/05/17 09:36:25;;;;;;;12.65;2.30;;;25.80;80.90;;;;;;4997551;28;63046;-71
2022/05/17 09:38:53;;;;;;;8.80;1.75;;;26.20;82.60;;;;;;4958326;28;218214;-74
2022/05/17 09:41:25;;;;;;;10.93;2.28;;;26.50;72.40;;;;;;5005500;28;32623;-73
2022/05/17 09:44:05;;;;;;;12.55;2.53;;;26.60;73.10;;;;;;4954745;28;215368;-72
2022/05/17 09:46:41;;;;;;;13.88;2.65;;;26.00;72.30;;;;;;4979219;28;20046;-71
2022/05/17 09:55:21;;;;;;;10.65;2.08;;;25.30;73.40;;;;;;4943769;28;225881;-71
2022/05/17 09:58:02;;;;;;;12.32;2.60;;;25.60;72.10;;;;;;5021954;28;20046;-72
2022/05/17 10:00:51;;;;;;;13.93;2.28;;;26.10;70.00;;;;;;4946354;28;245426;-75
2022/05/17 10:03:46;;;;;;;12.32;2.70;;;26.50;70.10;;;;;;4934286;28;30008;-72
2022/05/17 10:06:28;;;;;;;10.00;2.20;;;26.40;68.80;;;;;;4836882;29;277801;-73
2022/05/17 10:09:05;;;;;;;10.27;1.83;;;26.50;68.00;;;;;;4857984;29;212386;-72
2022/05/17 10:11:51;;;;;;;10.70;2.10;;;26.40;65.20;;;;;;4879557;29;20048;-71
2022/05/17 10:14:22;;;;;;;11.60;1.85;;;26.50;62.40;;;;;;4848068;29;214611;-71
2022/05/17 10:16:57;;;;;;;8.40;1.80;;;26.80;60.90;;;;;;4905780;29;20067;-72
2022/05/17 10:20:17;;;;;;;8.57;1.92;;;26.90;60.70;;;;;;4854455;29;161044;-71
2022/05/17 10:23:03;;;;;;;8.83;2.00;;;26.70;58.90;;;;;;4903515;29;20055;-73
2022/05/17 10:25:47;;;;;;;10.50;2.20;;;26.50;57.90;;;;;;4851717;29;206564;-72
2022/05/17 10:28:25;;;;;;;9.75;1.85;;;26.30;61.20;;;;;;4909696;29;20403;-71
2022/05/17 10:31:12;;;;;;;10.95;1.80;;;25.90;56.80;;;;;;4832808;29;207843;-71
2022/05/17 10:34:16;;;;;;;10.60;2.17;;;25.40;58.30;;;;;;4860201;29;211967;-73
2022/05/17 10:36:47;;;;;;;10.27;2.08;;;25.00;61.50;;;;;;4894885;29;20039;-71
2022/05/17 10:39:31;;;;;;;;;;;25.10;60.70;;;;;;4848652;29;206770;-70
2022/05/17 10:41:58;;;;;;;10.27;1.60;;;25.40;63.60;;;;;;4913418;29;20897;-71
2022/05/17 10:44:47;;;;;;;9.75;2.10;;;25.70;61.70;;;;;;4871172;28;246443;-71
2022/05/17 10:47:53;;;;;;;9.50;1.97;;;26.30;61.50;;;;;;4937454;28;20066;-71
2022/05/17 10:50:19;;;;;;;10.13;1.95;;;27.10;61.00;;;;;;4866101;28;207211;-71
2022/05/17 10:53:14;;;;;;;10.90;1.90;;;27.30;57.60;;;;;;4939167;28;20054;-72
2022/05/17 10:55:49;;;;;;;9.20;1.60;;;27.30;55.10;;;;;;4824518;28;206833;-74
2022/05/17 10:58:30;;;;;;;8.60;1.63;;;27.70;50.00;;;;;;5003066;28;20460;-73
2022/05/17 11:01:05;;;;;;;9.55;1.70;;;27.80;48.40;;;;;;4946864;28;208054;-71
2022/05/17 11:03:46;;;;;;;9.52;1.80;;;28.20;49.30;;;;;;4982750;28;210606;-72
2022/05/17 11:06:34;;;;;;;7.82;1.55;;;28.70;47.40;;;;;;4954036;28;129055;-71
2022/05/17 11:09:21;;;;;;;10.32;1.88;;;28.80;48.60;;;;;;4937149;28;245277;-71
2022/05/17 11:11:53;;;;;;;8.73;1.70;;;28.90;47.90;;;;;;4995903;28;20411;-75
2022/05/17 11:14:32;;;;;;;10.18;2.35;;;28.80;48.50;;;;;;4948876;28;212776;-72
2022/05/17 11:17:12;;;;;;;7.93;1.90;;;29.20;48.80;;;;;;5010039;28;20077;-73
2022/05/17 11:19:43;;;;;;;8.05;1.48;;;29.60;47.00;;;;;;4942405;28;212070;-72
2022/05/17 11:22:54;;;;;;;10.07;1.73;;;29.60;48.50;;;;;;4993606;28;20499;-72
2022/05/17 11:25:57;;;;;;;8.30;1.58;;;30.10;43.80;;;;;;4936793;28;214655;-72
2022/05/17 11:28:58;;;;;;;12.57;1.92;;;30.00;43.40;;;;;;4975727;28;212504;-71
2022/05/17 11:31:39;;;;;;;9.88;2.05;;;29.60;44.10;;;;;;4899144;28;20063;-73
2022/05/17 11:34:28;;;;;;;8.00;1.65;;;29.50;41.80;;;;;;4893493;28;205176;-71
2022/05/17 11:37:04;;;;;;;12.23;1.77;;;29.20;40.90;;;;;;4945764;28;20057;-75
2022/05/17 11:39:40;;;;;;;10.18;1.77;;;29.30;42.00;;;;;;4895262;28;209345;-73
2022/05/17 11:42:06;;;;;;;9.82;1.85;;;29.80;42.90;;;;;;4944398;28;20055;-75
2022/05/17 11:44:49;;;;;;;9.80;2.10;;;30.30;41.90;;;;;;4898978;28;206890;-75
2022/05/17 11:47:27;;;;;;;10.73;2.00;;;30.30;42.80;;;;;;4934508;28;20043;-72
2022/05/17 11:50:18;;;;;;;8.93;1.70;;;30.00;42.20;;;;;;4891302;28;206802;-73
2022/05/17 11:52:54;;;;;;;10.82;2.00;;;29.60;44.50;;;;;;4944127;28;20504;-72
2022/05/17 11:55:26;;;;;;;10.27;1.73;;;29.50;43.80;;;;;;4892559;28;206199;-72
2022/05/17 11:57:52;;;;;;;9.48;2.00;;;29.50;44.10;;;;;;4952560;28;20147;-74
2022/05/17 12:00:23;;;;;;;9.30;1.98;;;28.70;43.80;;;;;;4899877;28;206807;-72
2022/05/17 12:03:01;;;;;;;14.13;2.05;;;28.10;43.70;;;;;;4947859;28;20500;-71
2022/05/17 12:05:47;;;;;;;11.70;2.13;;;27.70;44.60;;;;;;4876500;28;211820;-72
2022/05/17 12:08:43;;;;;;;11.15;2.10;;;27.90;45.90;;;;;;5001911;28;20072;-72
2022/05/17 12:11:12;;;;;;;10.10;2.10;;;28.60;43.90;;;;;;4945314;28;217075;-72
2022/05/17 12:13:44;;;;;;;13.57;2.00;;;29.20;44.80;;;;;;4959706;28;213185;-71
2022/05/17 12:16:17;;;;;;;9.70;1.83;;;29.20;44.60;;;;;;4990372;28;137296;-74
2022/05/17 12:18:51;;;;;;;12.07;2.17;;;29.60;44.50;;;;;;4971435;28;213790;-71
2022/05/17 12:21:34;;;;;;;9.80;1.90;;;29.60;44.80;;;;;;4975971;28;241085;-71
2022/05/17 12:24:03;;;;;;;10.70;2.10;;;29.90;44.80;;;;;;4951170;28;214511;-71
2022/05/17 12:27:04;;;;;;;15.90;2.10;;;30.10;44.80;;;;;;5011493;28;20048;-72
2022/05/17 12:32:21;;;;;;;10.70;1.98;;;30.90;44.60;;;;;;5014103;28;20449;-73
2022/05/17 12:34:53;;;;;;;9.38;1.90;;;31.00;44.30;;;;;;4937780;28;227286;-72
2022/05/17 12:37:26;;;;;;;11.23;1.80;;;30.90;43.00;;;;;;5007361;28;20060;-73
2022/05/17 12:45:30;;;;;;;10.95;2.00;;;30.80;44.00;;;;;;4938442;28;242682;-71
2022/05/17 12:47:59;;;;;;;11.15;2.00;;;31.10;43.50;;;;;;5008008;28;20046;-71
2022/05/17 12:50:39;;;;;;;12.13;2.00;;;31.20;43.60;;;;;;4959715;28;213062;-71
2022/05/17 12:53:17;;;;;;;10.00;1.80;;;31.70;44.00;;;;;;5006739;28;20058;-71
2022/05/17 12:56:07;;;;;;;9.85;1.90;;;32.20;45.10;;;;;;4958313;28;222928;-72
2022/05/17 12:58:35;;;;;;;11.85;2.17;;;32.70;42.90;;;;;;4960951;28;210481;-73
2022/05/17 13:01:04;;;;;;;11.13;1.88;;;33.10;42.80;;;;;;5006181;28;60394;-71
2022/05/17 13:03:31;;;;;;;8.70;1.92;;;33.00;41.20;;;;;;4959737;28;211716;-71
2022/05/17 13:06:03;;;;;;;8.75;1.63;;;32.50;41.20;;;;;;4941247;28;149762;-72
2022/05/17 13:08:37;;;;;;;8.55;1.80;;;31.80;41.90;;;;;;4974602;28;209692;-74
2022/05/17 13:11:29;;;;;;;8.00;1.63;;;31.50;41.00;;;;;;4970355;28;226442;-75
2022/05/17 13:14:07;;;;;;;9.45;1.73;;;30.80;42.20;;;;;;4956312;28;211120;-72
2022/05/17 13:16:36;;;;;;;10.52;2.20;;;30.50;43.60;;;;;;4998071;28;20049;-71